Time;durP1;ratioP1;P1;durP2;ratioP2;P2;SDS_P1;SDS_P2;PMS_P1;PMS_P2;Temp;Humidity;BMP_temperature;BMP_pressure;BME280_temperature;BME280_humidity;BME280_pressure;Samples;Min_cycle;Max_cycle;Signal;HPM_P1;HPM_P2
2021/09/16 00:00:36;;;;;;;27.95;21.23;;;;;;;18.29;76.08;100096.59;1788171;80;21013;-79
2021/09/16 00:03:03;;;;;;;25.90;19.80;;;;;;;18.28;76.13;100090.38;1788373;80;21041;-79
2021/09/16 00:05:29;;;;;;;28.30;20.17;;;;;;;18.25;76.19;100092.70;1788457;80;20982;-79
2021/09/16 00:07:56;;;;;;;28.92;20.65;;;;;;;18.22;76.26;100092.64;1788503;80;20987;-79
2021/09/16 00:10:22;;;;;;;29.07;21.60;;;;;;;18.23;76.34;100087.52;1788587;80;21523;-79
2021/09/16 00:12:48;;;;;;;27.75;20.72;;;;;;;18.18;76.40;100076.59;1788463;80;21006;-79
2021/09/16 00:15:14;;;;;;;32.67;21.07;;;;;;;18.14;76.48;100075.39;1788356;80;21084;-79
2021/09/16 00:17:40;;;;;;;27.25;21.23;;;;;;;18.13;76.59;100079.13;1788257;80;20967;-79
2021/09/16 00:20:07;;;;;;;23.55;19.12;;;;;;;18.14;76.69;100086.19;1788439;80;20990;-79
2021/09/16 00:22:33;;;;;;;31.73;19.32;;;;;;;18.15;76.72;100083.80;1788402;80;21496;-79
2021/09/16 00:24:59;;;;;;;23.87;19.32;;;;;;;18.16;76.78;100085.42;1788218;80;21490;-79
2021/09/16 00:27:25;;;;;;;26.37;21.52;;;;;;;18.15;76.82;100085.15;1788556;80;21077;-79
2021/09/16 00:29:51;;;;;;;24.05;17.87;;;;;;;18.17;76.88;100084.38;1788225;80;20998;-79
2021/09/16 00:32:17;;;;;;;23.00;19.15;;;;;;;18.18;76.92;100080.64;1788418;80;20943;-79
2021/09/16 00:34:43;;;;;;;25.72;19.23;;;;;;;18.20;76.97;100083.92;1788903;80;21013;-79
2021/09/16 00:37:09;;;;;;;25.08;19.23;;;;;;;18.22;77.02;100085.06;1789158;80;20875;-79
2021/09/16 00:39:35;;;;;;;22.10;18.85;;;;;;;18.21;77.05;100085.58;1788894;80;21149;-79
2021/09/16 00:42:02;;;;;;;23.00;18.25;;;;;;;18.25;77.10;100088.13;1788954;80;21041;-79
2021/09/16 00:44:28;;;;;;;21.73;18.42;;;;;;;18.26;77.11;100084.36;1788976;79;20978;-79
2021/09/16 00:46:53;;;;;;;22.65;19.20;;;;;;;18.29;77.15;100087.98;1788857;80;20946;-79
2021/09/16 00:49:19;;;;;;;25.32;19.98;;;;;;;18.31;77.15;100092.61;1789043;79;20987;-79
2021/09/16 00:51:47;;;;;;;22.42;19.80;;;;;;;18.31;77.17;100095.31;1788897;80;21111;-79
2021/09/16 00:54:13;;;;;;;30.57;20.10;;;;;;;18.32;77.19;100093.44;1788993;79;20994;-79
2021/09/16 00:56:39;;;;;;;23.75;18.85;;;;;;;18.33;77.20;100097.25;1788882;80;21018;-79
2021/09/16 00:59:06;;;;;;;24.35;19.85;;;;;;;18.31;77.22;100106.63;1788928;79;21013;-79
2021/09/16 01:01:32;;;;;;;25.45;21.55;;;;;;;18.30;77.26;100102.28;1788964;80;21041;-79
2021/09/16 01:03:58;;;;;;;26.70;22.90;;;;;;;18.31;77.30;100107.46;1788791;79;22131;-79
2021/09/16 01:06:25;;;;;;;28.30;21.97;;;;;;;18.29;77.32;100102.83;1788757;80;21084;-79
2021/09/16 01:08:51;;;;;;;25.65;20.62;;;;;;;18.30;77.35;100103.62;1788762;80;20983;-79
2021/09/16 01:11:18;;;;;;;24.37;19.90;;;;;;;18.29;77.36;100101.48;1788898;80;21093;-79
2021/09/16 01:13:44;;;;;;;25.97;20.12;;;;;;;18.28;77.39;100093.07;1788775;80;21042;-79
2021/09/16 01:16:10;;;;;;;26.65;20.48;;;;;;;18.28;77.42;100095.77;1789128;80;21143;-79
2021/09/16 01:18:36;;;;;;;25.82;21.62;;;;;;;18.27;77.44;100091.41;1788892;80;21435;-79
2021/09/16 01:21:02;;;;;;;24.05;20.57;;;;;;;18.25;77.46;100096.23;1788862;80;21454;-79
2021/09/16 01:23:28;;;;;;;27.50;21.10;;;;;;;18.21;77.49;100092.33;1789055;80;21026;-79
2021/09/16 01:25:54;;;;;;;26.15;21.17;;;;;;;18.22;77.53;100087.77;1788710;80;21041;-79
2021/09/16 01:28:20;;;;;;;25.77;20.35;;;;;;;18.20;77.56;100090.67;1788956;80;21094;-80
2021/09/16 01:30:47;;;;;;;25.65;21.35;;;;;;;18.18;77.60;100087.39;1788821;79;20898;-79
2021/09/16 01:33:13;;;;;;;25.10;21.57;;;;;;;18.18;77.63;100088.73;1781665;80;21018;-79
2021/09/16 01:35:39;;;;;;;25.12;20.88;;;;;;;18.15;77.67;100087.84;1780040;80;20983;-79
2021/09/16 01:38:05;;;;;;;24.32;20.75;;;;;;;18.14;77.72;100088.89;1780137;80;21546;-79
2021/09/16 01:40:31;;;;;;;30.10;21.82;;;;;;;18.12;77.77;100093.67;1780116;80;21220;-79
2021/09/16 01:42:57;;;;;;;26.50;21.50;;;;;;;18.11;77.80;100092.05;1779972;80;21458;-79
2021/09/16 01:45:26;;;;;;;25.72;20.48;;;;;;;18.12;77.86;100091.52;1780184;80;21026;-79
2021/09/16 01:47:52;;;;;;;24.27;21.68;;;;;;;18.10;77.88;100087.69;1780199;80;21535;-79
2021/09/16 01:50:23;;;;;;;23.60;20.95;;;;;;;18.10;77.92;100076.89;1780144;80;21601;-79
2021/09/16 01:52:49;;;;;;;28.75;20.37;;;;;;;18.10;77.98;100084.98;1780037;80;20984;-79
2021/09/16 01:55:16;;;;;;;24.98;20.80;;;;;;;18.10;77.99;100079.59;1779930;80;20978;-79
2021/09/16 01:57:42;;;;;;;21.33;18.82;;;;;;;18.10;78.02;100078.24;1780052;80;20983;-79
2021/09/16 02:00:09;;;;;;;22.98;19.35;;;;;;;18.12;78.06;100075.33;1780107;80;21022;-79
2021/09/16 02:02:35;;;;;;;21.95;17.95;;;;;;;18.11;78.10;100077.20;1780030;80;20971;-79
2021/09/16 02:05:01;;;;;;;21.27;16.87;;;;;;;18.13;78.12;100074.26;1779973;80;21111;-79
2021/09/16 02:07:28;;;;;;;21.30;16.60;;;;;;;18.15;78.14;100077.05;1779711;80;20995;-79
2021/09/16 02:09:54;;;;;;;19.23;15.35;;;;;;;18.17;78.14;100074.94;1780024;80;21050;-79
2021/09/16 02:12:21;;;;;;;22.07;17.50;;;;;;;18.23;78.14;100068.62;1780015;80;21993;-79
2021/09/16 02:14:47;;;;;;;21.52;15.93;;;;;;;18.27;78.09;100072.52;1780155;80;20967;-79
2021/09/16 02:17:13;;;;;;;15.88;14.18;;;;;;;18.32;78.10;100075.89;1780004;80;21099;-79
2021/09/16 02:19:39;;;;;;;20.23;14.13;;;;;;;18.37;78.08;100070.61;1780105;80;21023;-79
2021/09/16 02:22:05;;;;;;;16.48;13.68;;;;;;;18.41;78.07;100071.81;1779976;80;20910;-79
2021/09/16 02:24:31;;;;;;;14.90;11.90;;;;;;;18.43;78.05;100066.50;1780072;80;20983;-79
2021/09/16 02:26:57;;;;;;;14.13;12.20;;;;;;;18.48;78.06;100060.39;1779845;80;21023;-79
2021/09/16 02:29:23;;;;;;;13.55;12.15;;;;;;;18.52;78.02;100070.23;1780191;80;21088;-79
2021/09/16 02:31:49;;;;;;;14.68;12.63;;;;;;;18.56;78.03;100065.51;1779823;80;21455;-78
2021/09/16 02:34:15;;;;;;;14.28;12.23;;;;;;;18.58;78.00;100063.94;1779787;80;21502;-79
2021/09/16 02:36:41;;;;;;;13.70;11.78;;;;;;;18.60;77.96;100065.88;1780125;80;21483;-79
2021/09/16 02:39:07;;;;;;;13.10;11.45;;;;;;;18.61;77.96;100062.95;1780049;80;21451;-79
2021/09/16 02:41:33;;;;;;;12.58;11.28;;;;;;;18.63;77.95;100063.53;1780104;80;21803;-79
2021/09/16 02:43:59;;;;;;;12.63;11.33;;;;;;;18.66;77.93;100058.19;1779946;80;21479;-79
2021/09/16 02:46:25;;;;;;;15.10;11.53;;;;;;;18.67;77.91;100058.49;1779962;79;21519;-79
2021/09/16 02:48:51;;;;;;;14.78;11.25;;;;;;;18.68;77.91;100056.89;1780044;80;20967;-79
2021/09/16 02:51:17;;;;;;;16.90;10.80;;;;;;;18.71;77.89;100058.33;1780092;80;20990;-79
2021/09/16 02:53:43;;;;;;;15.63;11.45;;;;;;;18.73;77.90;100052.16;1780065;80;21135;-79
2021/09/16 02:56:09;;;;;;;13.10;10.63;;;;;;;18.75;77.88;100060.87;1779980;80;21538;-79
2021/09/16 02:58:35;;;;;;;12.82;11.55;;;;;;;18.76;77.88;100063.33;1779945;80;21023;-79
2021/09/16 03:01:01;;;;;;;14.95;11.57;;;;;;;18.76;77.88;100053.05;1779569;80;20994;-79
2021/09/16 03:03:27;;;;;;;18.52;15.43;;;;;;;18.76;77.87;100061.14;1780007;80;20940;-79
2021/09/16 03:05:54;;;;;;;17.23;12.10;;;;;;;18.76;77.87;100057.92;1779558;80;21134;-79
2021/09/16 03:08:20;;;;;;;14.75;12.50;;;;;;;18.77;77.85;100061.45;1779660;80;21014;-79
2021/09/16 03:10:46;;;;;;;13.58;11.53;;;;;;;18.76;77.86;100057.09;1779935;80;21050;-79
2021/09/16 03:13:11;;;;;;;14.20;12.10;;;;;;;18.76;77.86;100057.09;1779615;80;20859;-79
2021/09/16 03:15:38;;;;;;;16.32;11.73;;;;;;;18.75;77.87;100058.97;1780229;80;21404;-80
2021/09/16 03:18:05;;;;;;;12.88;11.08;;;;;;;18.73;77.86;100058.39;1780103;80;21170;-79
2021/09/16 03:20:31;;;;;;;14.00;12.23;;;;;;;18.73;77.85;100056.21;1780090;80;21034;-79
2021/09/16 03:22:57;;;;;;;12.93;11.73;;;;;;;18.72;77.85;100053.20;1780014;80;20975;-79
2021/09/16 03:25:23;;;;;;;13.68;11.40;;;;;;;18.71;77.87;100059.69;1780193;80;21041;-79
2021/09/16 03:27:49;;;;;;;13.48;11.83;;;;;;;18.69;77.88;100054.50;1780551;80;21527;-79
2021/09/16 03:30:15;;;;;;;14.15;12.28;;;;;;;18.68;77.90;100052.05;1780321;80;21894;-79
2021/09/16 03:32:41;;;;;;;15.75;12.07;;;;;;;18.65;77.89;100053.31;1782250;80;20978;-79
2021/09/16 03:35:08;;;;;;;13.20;11.80;;;;;;;18.65;77.93;100058.71;1788044;80;21026;-79
2021/09/16 03:37:34;;;;;;;16.00;11.68;;;;;;;18.63;77.92;100057.30;1788542;80;21038;-79
2021/09/16 03:40:00;;;;;;;15.32;12.80;;;;;;;18.61;77.98;100056.72;1788143;80;21002;-79
2021/09/16 03:42:26;;;;;;;14.78;13.10;;;;;;;18.60;78.01;100052.36;1788306;80;21813;-79
2021/09/16 03:44:52;;;;;;;15.10;13.50;;;;;;;18.57;78.06;100052.83;1788277;80;20982;-79
2021/09/16 03:47:18;;;;;;;14.70;12.28;;;;;;;18.56;78.09;100056.58;1788179;80;21446;-79
2021/09/16 03:49:44;;;;;;;17.92;13.25;;;;;;;18.55;78.16;100061.67;1788533;80;21561;-79
2021/09/16 03:52:10;;;;;;;14.63;12.47;;;;;;;18.52;78.19;100055.38;1788253;80;21389;-79
2021/09/16 03:54:37;;;;;;;15.08;13.48;;;;;;;18.52;78.24;100056.73;1788547;80;20994;-79
2021/09/16 03:57:03;;;;;;;16.93;12.73;;;;;;;18.48;78.27;100055.81;1787891;80;21021;-79
2021/09/16 03:59:30;;;;;;;15.60;12.33;;;;;;;18.48;78.32;100060.39;1788616;80;22242;-80
2021/09/16 04:01:56;;;;;;;21.20;12.10;;;;;;;18.46;78.34;100057.94;1788127;80;21042;-79
2021/09/16 04:04:22;;;;;;;15.08;13.15;;;;;;;18.44;78.42;100053.27;1788301;80;21534;-79
2021/09/16 04:06:48;;;;;;;16.93;13.35;;;;;;;18.45;78.47;100057.63;1788153;80;21812;-79
2021/09/16 04:09:14;;;;;;;17.40;13.30;;;;;;;18.42;78.53;100055.39;1788342;80;20970;-80
2021/09/16 04:11:40;;;;;;;16.32;13.68;;;;;;;18.41;78.59;100055.08;1788451;80;21030;-79
2021/09/16 04:14:06;;;;;;;15.40;13.75;;;;;;;18.40;78.64;100054.78;1788350;80;21019;-79
2021/09/16 04:16:32;;;;;;;16.52;13.68;;;;;;;18.37;78.70;100053.89;1788400;80;21041;-79
2021/09/16 04:18:58;;;;;;;16.30;13.45;;;;;;;18.36;78.74;100054.14;1788465;80;21022;-79
2021/09/16 04:21:24;;;;;;;16.62;12.40;;;;;;;18.35;78.80;100054.66;1788291;80;21097;-79
2021/09/16 04:23:50;;;;;;;13.95;12.55;;;;;;;18.34;78.86;100057.05;1788538;78;21419;-79
2021/09/16 04:26:16;;;;;;;15.28;13.72;;;;;;;18.34;78.95;100060.27;1788448;80;21017;-79
2021/09/16 04:28:43;;;;;;;20.25;15.38;;;;;;;18.32;79.00;100064.57;1788465;80;21049;-79
2021/09/16 04:31:09;;;;;;;18.67;14.38;;;;;;;18.30;79.07;100061.25;1788387;80;20975;-79
2021/09/16 04:33:35;;;;;;;16.77;13.60;;;;;;;18.31;79.13;100065.61;1788233;80;20924;-79
2021/09/16 04:36:03;;;;;;;16.50;14.47;;;;;;;18.31;79.20;100063.44;1788161;78;20875;-79
2021/09/16 04:38:28;;;;;;;15.28;13.68;;;;;;;18.30;79.27;100070.70;1788118;80;21252;-79
2021/09/16 04:40:54;;;;;;;18.45;13.43;;;;;;;18.29;79.33;100071.78;1788243;80;20991;-79
2021/09/16 04:43:20;;;;;;;17.95;13.93;;;;;;;18.29;79.40;100070.43;1788488;80;21164;-80
2021/09/16 04:45:46;;;;;;;16.40;13.98;;;;;;;18.27;79.49;100071.16;1788299;80;21463;-79
2021/09/16 04:48:12;;;;;;;18.25;14.30;;;;;;;18.28;79.55;100068.77;1788316;80;20977;-79
2021/09/16 04:50:38;;;;;;;17.48;15.50;;;;;;;18.29;79.63;100075.00;1788628;80;20934;-80
2021/09/16 04:53:05;;;;;;;19.23;16.15;;;;;;;18.28;79.68;100074.69;1788119;80;21513;-79
2021/09/16 04:55:31;;;;;;;19.52;17.30;;;;;;;18.30;79.75;100077.45;1788400;80;21121;-79
2021/09/16 04:57:57;;;;;;;23.25;18.65;;;;;;;18.31;79.82;100071.02;1788136;80;21029;-79
2021/09/16 05:00:23;;;;;;;19.60;16.97;;;;;;;18.31;79.91;100073.71;1788411;80;21034;-79
2021/09/16 05:02:49;;;;;;;21.48;16.10;;;;;;;18.32;79.95;100075.89;1788038;80;21474;-79
2021/09/16 05:05:15;;;;;;;19.27;17.15;;;;;;;18.30;80.01;100078.80;1788431;80;21065;-79
2021/09/16 05:07:41;;;;;;;21.80;17.27;;;;;;;18.30;80.12;100085.55;1788567;80;21586;-79
2021/09/16 05:10:09;;;;;;;19.32;17.25;;;;;;;18.30;80.18;100090.12;1788239;80;21480;-79
2021/09/16 05:12:35;;;;;;;21.60;17.77;;;;;;;18.30;80.24;100087.42;1788468;80;21042;-79
2021/09/16 05:15:01;;;;;;;20.92;18.42;;;;;;;18.27;80.35;100086.02;1787939;80;20998;-79
2021/09/16 05:17:27;;;;;;;20.12;16.87;;;;;;;18.27;80.40;100083.31;1788489;80;20992;-79
2021/09/16 05:19:53;;;;;;;19.87;16.75;;;;;;;18.28;80.46;100093.07;1788377;80;21898;-79
2021/09/16 05:22:19;;;;;;;19.98;17.45;;;;;;;18.30;80.55;100093.66;1788285;80;21014;-79
2021/09/16 05:24:45;;;;;;;20.08;17.98;;;;;;;18.30;80.61;100096.35;1788304;80;20982;-79
2021/09/16 05:27:11;;;;;;;21.37;18.12;;;;;;;18.30;80.68;100103.10;1788318;80;21037;-79
2021/09/16 05:29:37;;;;;;;19.77;17.42;;;;;;;18.29;80.73;100105.53;1788586;80;20956;-79
2021/09/16 05:32:05;;;;;;;22.95;19.10;;;;;;;18.28;80.80;100109.27;1787933;80;21148;-80
2021/09/16 05:34:31;;;;;;;27.42;19.80;;;;;;;18.27;80.87;100104.91;1788037;80;21022;-79
2021/09/16 05:36:57;;;;;;;23.70;18.70;;;;;;;18.27;80.91;100110.83;1788324;80;20982;-79
2021/09/16 05:39:23;;;;;;;23.85;20.02;;;;;;;18.26;80.98;100112.70;1788063;80;21077;-79
2021/09/16 05:41:49;;;;;;;21.15;18.95;;;;;;;18.29;81.07;100105.53;1788246;80;21097;-79
2021/09/16 05:44:15;;;;;;;23.07;19.70;;;;;;;18.31;81.12;100104.76;1788217;80;21157;-79
2021/09/16 05:46:41;;;;;;;24.92;21.70;;;;;;;18.32;81.19;100102.37;1788525;80;21038;-79
2021/09/16 05:49:07;;;;;;;24.92;20.90;;;;;;;18.32;81.26;100104.23;1788266;80;21470;-79
2021/09/16 05:51:33;;;;;;;22.85;19.32;;;;;;;18.30;81.34;100115.25;1788376;80;21542;-79
2021/09/16 05:53:59;;;;;;;23.57;19.52;;;;;;;18.30;81.40;100107.67;1788327;80;20952;-79
2021/09/16 05:56:25;;;;;;;27.58;20.82;;;;;;;18.31;81.47;100108.81;1788041;80;21169;-79
2021/09/16 05:58:51;;;;;;;28.10;21.30;;;;;;;18.32;81.53;100106.42;1787814;80;21022;-79
2021/09/16 06:01:17;;;;;;;24.07;20.05;;;;;;;18.33;81.62;100112.09;1788240;80;21018;-79
2021/09/16 06:03:43;;;;;;;26.95;21.50;;;;;;;18.34;81.69;100114.27;1788151;80;21435;-79
2021/09/16 06:06:09;;;;;;;25.80;20.80;;;;;;;18.35;81.77;100112.71;1787970;80;21451;-79
2021/09/16 06:08:35;;;;;;;24.40;21.40;;;;;;;18.37;81.84;100113.81;1788236;80;21057;-80
2021/09/16 06:11:01;;;;;;;26.73;21.65;;;;;;;18.36;81.89;100113.02;1788006;80;20859;-79
2021/09/16 06:13:27;;;;;;;25.45;20.50;;;;;;;18.37;81.98;100115.99;1788352;80;21530;-79
2021/09/16 06:15:53;;;;;;;23.05;19.92;;;;;;;18.37;82.04;100107.89;1788270;80;21454;-80
2021/09/16 06:18:19;;;;;;;24.72;21.15;;;;;;;18.35;82.10;100114.58;1788401;80;21592;-80
2021/09/16 06:20:45;;;;;;;23.22;20.30;;;;;;;18.34;82.17;100112.41;1788379;80;21756;-79
2021/09/16 06:23:11;;;;;;;25.75;19.92;;;;;;;18.35;82.21;100118.11;1788326;80;20994;-79
2021/09/16 06:25:37;;;;;;;25.92;20.95;;;;;;;18.36;82.26;100114.37;1788352;80;21022;-79
2021/09/16 06:28:04;;;;;;;25.15;21.07;;;;;;;18.38;82.35;100120.34;1788299;80;20962;-80
2021/09/16 06:30:30;;;;;;;25.05;20.90;;;;;;;18.40;82.40;100116.88;1788384;80;21050;-79
2021/09/16 06:32:56;;;;;;;23.55;20.32;;;;;;;18.41;82.44;100123.11;1788284;80;20973;-79
2021/09/16 06:35:22;;;;;;;22.17;19.62;;;;;;;18.44;82.52;100126.70;1779741;80;21538;-79
2021/09/16 06:37:48;;;;;;;25.00;19.52;;;;;;;18.47;82.56;100124.38;1780179;80;21488;-79
2021/09/16 06:40:14;;;;;;;22.42;20.02;;;;;;;18.55;82.63;100125.14;1779563;80;21565;-79
2021/09/16 06:42:40;;;;;;;23.45;20.10;;;;;;;18.61;82.67;100128.30;1780104;79;21562;-79
2021/09/16 06:45:07;;;;;;;21.60;19.30;;;;;;;18.68;82.70;100129.03;1779925;80;21755;-79
2021/09/16 06:47:33;;;;;;;21.93;19.55;;;;;;;18.73;82.75;100131.34;1780043;80;20980;-80
2021/09/16 06:49:59;;;;;;;21.42;19.12;;;;;;;18.79;82.77;100137.69;1779944;80;20986;-79
2021/09/16 06:52:25;;;;;;;21.52;19.23;;;;;;;18.82;82.79;100139.95;1780004;80;21257;-79
2021/09/16 06:54:51;;;;;;;24.82;19.23;;;;;;;18.83;82.79;100144.28;1780096;80;21022;-79
2021/09/16 06:57:19;;;;;;;23.07;19.17;;;;;;;18.85;82.83;100145.72;1780017;80;21225;-79
2021/09/16 06:59:45;;;;;;;21.68;18.35;;;;;;;18.86;82.84;100147.88;1780178;80;21721;-80
2021/09/16 07:02:11;;;;;;;20.12;17.98;;;;;;;18.85;82.85;100147.59;1780339;80;21459;-79
2021/09/16 07:04:38;;;;;;;21.23;18.48;;;;;;;18.85;82.84;100150.30;1780248;80;22269;-79
2021/09/16 07:07:04;;;;;;;19.70;17.60;;;;;;;18.83;82.87;100146.98;1779813;80;21790;-79
2021/09/16 07:09:31;;;;;;;22.60;18.90;;;;;;;18.86;82.86;100161.38;1779764;80;21086;-79
2021/09/16 07:11:57;;;;;;;22.58;18.98;;;;;;;18.88;82.85;100152.53;1780104;80;21499;-79
2021/09/16 07:14:26;;;;;;;20.15;17.95;;;;;;;18.89;82.88;100158.25;1779968;80;21617;-79
2021/09/16 07:16:53;;;;;;;21.60;17.92;;;;;;;18.94;82.88;100157.02;1780161;80;21748;-79
2021/09/16 07:19:19;;;;;;;20.57;18.25;;;;;;;18.94;82.86;100166.47;1779895;80;21046;-79
2021/09/16 07:21:45;;;;;;;20.35;18.17;;;;;;;18.95;82.88;100164.08;1780223;80;21430;-79
2021/09/16 07:24:13;;;;;;;19.48;16.80;;;;;;;18.90;82.87;100161.23;1779837;80;21034;-79
2021/09/16 07:26:39;;;;;;;20.75;15.68;;;;;;;18.86;82.86;100171.67;1780031;80;21065;-79
2021/09/16 07:29:05;;;;;;;19.67;16.05;;;;;;;18.80;82.85;100173.12;1779930;80;20991;-79
2021/09/16 07:31:31;;;;;;;17.00;13.45;;;;;;;18.75;82.86;100173.00;1779996;80;21078;-79
2021/09/16 07:33:57;;;;;;;16.17;14.45;;;;;;;18.71;82.88;100171.80;1782194;80;21096;-79
2021/09/16 07:36:23;;;;;;;16.17;13.85;;;;;;;18.69;82.85;100175.23;1788377;78;20982;-79
2021/09/16 07:38:49;;;;;;;15.43;13.80;;;;;;;18.68;82.88;100183.06;1788493;80;21018;-79
2021/09/16 07:41:16;;;;;;;14.13;12.73;;;;;;;18.64;82.86;100181.87;1788289;80;20978;-79
2021/09/16 07:43:42;;;;;;;17.10;14.05;;;;;;;18.61;82.88;100179.63;1788440;80;21002;-79
2021/09/16 07:46:08;;;;;;;17.12;13.93;;;;;;;18.58;82.91;100178.73;1788375;80;21173;-79
2021/09/16 07:48:34;;;;;;;14.03;12.28;;;;;;;18.61;82.90;100185.03;1788595;80;20972;-79
2021/09/16 07:51:00;;;;;;;14.33;12.23;;;;;;;18.62;82.92;100182.08;1788418;80;21459;-79
2021/09/16 07:53:30;;;;;;;13.20;11.90;;;;;;;18.64;82.92;100183.22;1788348;78;21486;-79
2021/09/16 07:55:58;;;;;;;15.08;12.40;;;;;;;18.67;82.92;100188.16;1788536;80;21022;-79
2021/09/16 07:58:25;;;;;;;13.15;11.35;;;;;;;18.65;82.90;100191.08;1788002;80;21140;-79
2021/09/16 08:00:55;;;;;;;13.30;11.50;;;;;;;18.64;82.91;100198.08;1788474;80;20999;-80
2021/09/16 08:03:19;;;;;;;13.05;11.63;;;;;;;18.63;82.93;100198.59;1787720;80;21463;-79
2021/09/16 08:05:45;;;;;;;14.85;10.60;;;;;;;18.65;82.90;100199.70;1788395;80;21014;-79
2021/09/16 08:08:12;;;;;;;13.32;10.65;;;;;;;18.68;82.87;100199.27;1788462;80;20986;-79
2021/09/16 08:10:38;;;;;;;12.88;10.53;;;;;;;18.77;82.90;100204.13;1788256;80;21140;-79
2021/09/16 08:13:04;;;;;;;12.07;9.93;;;;;;;18.85;82.87;100201.64;1788301;80;21018;-79
2021/09/16 08:15:30;;;;;;;12.20;10.13;;;;;;;18.89;82.84;100198.78;1788545;80;21002;-79
2021/09/16 08:17:56;;;;;;;12.95;10.18;;;;;;;18.94;82.82;100205.66;1788604;80;20971;-79
2021/09/16 08:20:22;;;;;;;12.63;10.40;;;;;;;18.98;82.78;100208.20;1788444;80;21030;-79
2021/09/16 08:22:49;;;;;;;11.40;9.15;;;;;;;19.03;82.73;100211.59;1788588;80;21187;-79
2021/09/16 08:25:15;;;;;;;10.80;9.08;;;;;;;19.08;82.69;100203.08;1788506;80;20966;-79
2021/09/16 08:27:42;;;;;;;12.40;9.58;;;;;;;19.15;82.60;100209.73;1788134;80;21035;-79
2021/09/16 08:30:09;;;;;;;11.35;9.23;;;;;;;19.24;82.56;100207.02;1788416;80;20983;-79
2021/09/16 08:32:35;;;;;;;11.73;8.98;;;;;;;19.31;82.48;100209.09;1788361;80;21511;-79
2021/09/16 08:35:05;;;;;;;12.35;9.95;;;;;;;19.36;82.37;100207.33;1783425;80;21511;-79
2021/09/16 08:37:32;;;;;;;9.53;8.18;;;;;;;19.38;82.28;100209.29;1779517;80;20995;-79
2021/09/16 08:39:58;;;;;;;9.75;8.80;;;;;;;19.40;82.20;100211.22;1780140;80;21420;-79
2021/09/16 08:42:25;;;;;;;10.48;8.85;;;;;;;19.40;82.10;100211.22;1779935;80;21451;-79
2021/09/16 08:44:53;;;;;;;14.20;8.78;;;;;;;19.49;82.03;100208.22;1779822;80;21077;-80
2021/09/16 08:47:20;;;;;;;10.28;8.83;;;;;;;19.51;81.93;100207.45;1780045;80;21491;-79
2021/09/16 08:49:46;;;;;;;12.50;7.95;;;;;;;19.56;81.87;100214.34;1780108;80;21011;-79
2021/09/16 08:52:12;;;;;;;14.13;8.00;;;;;;;19.60;81.73;100215.54;1779932;80;20994;-80
2021/09/16 08:54:39;;;;;;;11.33;8.28;;;;;;;19.60;81.61;100215.54;1780058;80;21050;-79
2021/09/16 08:57:06;;;;;;;10.63;8.33;;;;;;;19.64;81.49;100211.28;1780029;80;21042;-80
2021/09/16 08:59:32;;;;;;;11.68;8.15;;;;;;;19.81;81.41;100212.23;1779900;80;21449;-79
2021/09/16 09:01:58;;;;;;;7.60;6.90;;;;;;;20.01;81.28;100215.97;1722635;80;20860;-79
2021/09/16 09:04:24;;;;;;;9.48;7.25;;;;;;;20.20;81.09;100208.81;1779972;80;20987;-80
2021/09/16 09:06:59;;;;;;;9.25;6.62;;;;;;;20.32;80.87;100213.73;1779968;80;20987;-80
2021/09/16 09:09:25;;;;;;;9.08;6.50;;;;;;;20.48;80.76;100215.42;1749549;80;20919;-79
2021/09/16 09:12:10;;;;;;;12.53;6.95;;;;;;;20.58;80.49;100216.46;1779838;80;21638;-80
2021/09/16 09:14:40;;;;;;;7.22;6.53;;;;;;;20.75;80.33;100219.23;1779903;80;21086;-79
2021/09/16 09:17:20;;;;;;;9.40;6.22;;;;;;;20.77;80.05;100214.38;1779862;80;20959;-79
2021/09/16 09:19:50;;;;;;;8.13;6.42;;;;;;;20.75;79.85;100219.23;1779879;80;21562;-79
2021/09/16 09:22:18;;;;;;;7.78;6.85;;;;;;;20.67;79.61;100216.89;1780125;80;20983;-80
2021/09/16 09:24:47;;;;;;;8.03;7.22;;;;;;;20.72;79.46;100217.80;1779765;80;22500;-80
2021/09/16 09:27:25;;;;;;;9.05;6.83;;;;;;;20.84;79.31;100208.28;1780107;80;20998;-79
2021/09/16 09:30:17;;;;;;;8.63;7.10;;;;;;;20.96;79.14;100219.09;1779751;80;20987;-79
2021/09/16 09:33:00;;;;;;;11.10;6.78;;;;;;;21.10;78.97;100215.03;1779884;80;21053;-80
2021/09/16 09:35:41;;;;;;;7.20;6.20;;;;;;;21.10;78.69;100217.73;1775926;80;21030;-79
2021/09/16 09:38:25;;;;;;;7.03;6.28;;;;;;;21.15;78.55;100209.18;1779628;80;21514;-79
2021/09/16 09:40:58;;;;;;;7.60;5.90;;;;;;;21.31;78.29;100205.69;1779940;80;21483;-79
2021/09/16 09:43:31;;;;;;;7.12;5.92;;;;;;;21.63;78.05;100201.89;1779914;80;21475;-80
2021/09/16 09:46:16;;;;;;;6.75;5.70;;;;;;;21.98;77.77;100207.08;1779496;80;20990;-80
2021/09/16 09:48:47;;;;;;;8.83;6.15;;;;;;;22.44;77.45;100202.28;1780052;80;21062;-79
2021/09/16 09:51:14;;;;;;;12.78;5.90;;;;;;;22.62;76.87;100201.97;1777260;80;22489;-79
2021/09/16 09:53:43;;;;;;;7.03;5.37;;;;;;;22.60;76.42;100208.17;1779654;80;21018;-79
2021/09/16 09:56:15;;;;;;;6.83;6.00;;;;;;;22.47;75.92;100203.95;1779828;80;20915;-79
2021/09/16 09:58:41;;;;;;;7.47;5.70;;;;;;;22.50;75.59;100201.26;1779677;80;20970;-79
2021/09/16 10:01:33;;;;;;;6.17;5.58;;;;;;;22.72;75.15;100198.86;1779839;80;21029;-79
2021/09/16 10:03:59;;;;;;;7.05;4.78;;;;;;;22.82;74.65;100200.88;1778917;80;21679;-79
2021/09/16 10:06:36;;;;;;;9.40;5.75;;;;;;;22.82;74.07;100197.62;1779822;79;21046;-79
2021/09/16 10:09:11;;;;;;;7.80;5.58;;;;;;;22.73;73.62;100196.97;1779506;80;20990;-79
2021/09/16 10:11:42;;;;;;;8.63;6.28;;;;;;;22.61;73.30;100204.39;1779933;80;21459;-79
2021/09/16 10:14:08;;;;;;;5.95;5.22;;;;;;;22.44;72.97;100206.36;1780038;80;21392;-79
2021/09/16 10:16:34;;;;;;;10.28;6.67;;;;;;;22.28;72.68;100208.86;1779973;80;22532;-79
2021/09/16 10:19:00;;;;;;;7.37;5.35;;;;;;;21.97;72.44;100209.50;1779974;80;20884;-79
2021/09/16 10:21:26;;;;;;;8.78;6.22;;;;;;;21.75;72.28;100216.72;1779803;80;21015;-79
2021/09/16 10:23:57;;;;;;;7.78;6.62;;;;;;;21.59;72.22;100218.91;1779957;80;20891;-79
2021/09/16 10:26:39;;;;;;;9.03;6.28;;;;;;;21.48;72.17;100215.73;1779759;80;21038;-79
2021/09/16 10:29:29;;;;;;;13.25;7.97;;;;;;;21.34;72.09;100217.41;1779618;80;22793;-79
2021/09/16 10:32:13;;;;;;;8.23;6.90;;;;;;;21.30;72.11;100216.25;1779964;80;20943;-79
2021/09/16 10:34:44;;;;;;;8.50;6.85;;;;;;;21.39;72.12;100212.05;1780840;80;21057;-79
2021/09/16 10:37:19;;;;;;;8.25;6.75;;;;;;;21.59;72.12;100215.66;1788099;80;20994;-79
2021/09/16 10:39:46;;;;;;;9.45;7.22;;;;;;;21.78;72.04;100211.61;1788309;80;21116;-79
2021/09/16 10:42:13;;;;;;;8.58;6.95;;;;;;;21.84;71.93;100213.89;1787815;80;21728;-79
2021/09/16 10:44:39;;;;;;;8.35;7.45;;;;;;;21.90;71.86;100218.35;1788144;80;21042;-79
2021/09/16 10:47:20;;;;;;;11.18;7.58;;;;;;;21.83;71.78;100211.70;1788488;80;21037;-79
2021/09/16 10:49:48;;;;;;;10.65;6.90;;;;;;;21.75;71.69;100216.72;1788020;80;21018;-79
2021/09/16 10:52:18;;;;;;;7.80;7.00;;;;;;;21.60;71.65;100216.48;1788203;80;21517;-78
2021/09/16 10:54:57;;;;;;;8.58;7.60;;;;;;;21.48;71.54;100223.87;1788087;80;21731;-79
2021/09/16 10:57:38;;;;;;;15.13;8.50;;;;;;;21.22;71.44;100226.13;1788008;80;20998;-79
2021/09/16 11:00:15;;;;;;;12.10;9.35;;;;;;;21.01;71.49;100236.27;1788108;80;21007;-78
2021/09/16 11:02:51;;;;;;;13.08;8.45;;;;;;;20.87;71.56;100234.38;1787992;80;21475;-78
2021/09/16 11:05:21;;;;;;;13.65;9.38;;;;;;;20.71;71.53;100235.68;1788185;80;20966;-79
2021/09/16 11:07:52;;;;;;;9.90;8.90;;;;;;;20.52;71.60;100243.66;1788179;80;21430;-78
2021/09/16 11:10:24;;;;;;;11.50;9.03;;;;;;;20.39;71.75;100245.58;1787778;80;21320;-79
2021/09/16 11:13:05;;;;;;;10.90;8.50;;;;;;;20.27;71.83;100245.25;1788022;80;20994;-79